Flight Track Log - Related Links

Times and Time Zones

All times are in EDT time to prevent confusion due to time zone crossing. See the UAL1259 flight status page for this flight to view local times or setup timezone preferences in your user account.

Time Position Orientation Groundspeed Altitude Reporting Facility
EDT Latitude Longitude Course Direction KTS MPH feet Rate Location/Type
Tue 01:24:42 PM 29.9764 -95.2983 30° Northeast 232 267 800  Level Houston Center
Tue 01:25:31 PM 29.9986 -95.2644 53° Northeast 199 229 2,400 2,500 Climbing Houston Center
Tue 01:26:06 PM 30.0367 -95.2472 21° North 244 281 4,300 2,945 Climbing Houston Center
Tue 01:26:26 PM 30.0589 -95.2353 25° Northeast 268 308 5,100 3,000 Climbing Houston Center
Tue 01:27:00 PM 30.2824 -95.0895 30° Northeast  Level FlightAware Approximate
Tue 01:27:08 PM 30.1072 -95.2069 27° Northeast 286 329 7,400  Level Houston Center
Tue 01:27:33 PM 30.1422 -95.1817 32° Northeast 309 356 9,000 3,484 Climbing Houston Center
Tue 01:28:00 PM 30.3852 -95.0118 35° Northeast  Level FlightAware Approximate
Tue 01:28:10 PM 30.1822 -95.1556 29° Northeast 311 358 11,000  Level Houston Center
Tue 01:29:00 PM 30.4836 -94.9276 30° Northeast  Level FlightAware Approximate
Tue 01:29:12 PM 30.2636 -95.1008 30° Northeast 337 388 13,800  Level Houston Center
Tue 01:30:13 PM 30.3522 -95.0419 30° Northeast 364 419 16,800 2,683 Climbing Houston Center
Tue 01:31:15 PM 30.4464 -94.9753 31° Northeast 382 440 19,300 2,565 Climbing Houston Center
Tue 01:32:17 PM 30.5397 -94.9008 34° Northeast 399 459 22,100 2,661 Climbing Houston Center
Tue 01:33:19 PM 30.6572 -94.8106 33° Northeast 418 481 24,800 2,516 Climbing Houston Center
Tue 01:34:21 PM 30.7581 -94.7347 33° Northeast 428 493 27,300 1,984 Climbing Houston Center
Tue 01:35:23 PM 30.8608 -94.6550 34° Northeast 440 506 28,900 1,610 Climbing Houston Center
Tue 01:35:43 PM 30.9006 -94.6222 35° Northeast 438 504 29,500 1,575 Climbing Fort Worth Center
Tue 01:36:43 PM 31.0136 -94.5364 33° Northeast 453 521 31,000 1,600 Climbing Fort Worth Center
Tue 01:37:43 PM 31.1222 -94.4506 34° Northeast 463 533 32,700 1,550 Climbing Fort Worth Center
Tue 01:38:43 PM 31.2328 -94.3644 34° Northeast 470 541 34,100 1,300 Climbing Fort Worth Center
Tue 01:39:43 PM 31.3478 -94.2781 33° Northeast 481 554 35,300 1,250 Climbing Fort Worth Center
Tue 01:40:43 PM 31.4622 -94.1864 34° Northeast 481 554 36,600 1,500 Climbing Fort Worth Center
Tue 01:41:43 PM 31.5728 -94.0997 34° Northeast 481 554 38,300 1,200 Climbing Fort Worth Center
Tue 01:42:43 PM 31.6792 -94.0178 33° Northeast 468 539 39,000 350 Climbing Fort Worth Center
Tue 01:43:43 PM 31.7936 -93.9306 33° Northeast 473 544 39,000  Level Fort Worth Center
Tue 01:44:43 PM 31.9058 -93.8381 35° Northeast 478 550 39,000  Level Fort Worth Center
Tue 01:45:43 PM 32.0200 -93.7431 35° Northeast 483 556 39,000  Level Fort Worth Center
Tue 01:46:43 PM 32.1344 -93.6575 32° Northeast 489 563 39,000  Level Fort Worth Center
Tue 01:47:43 PM 32.2461 -93.5572 37° Northeast 494 568 39,000  Level Fort Worth Center
Tue 01:48:43 PM 32.3625 -93.4661 33° Northeast 499 574 39,000  Level Fort Worth Center
Tue 01:49:43 PM 32.4744 -93.3775 34° Northeast 499 574 39,000  Level Fort Worth Center
Tue 01:50:43 PM 32.5883 -93.2886 33° Northeast 499 574 39,000  Level Fort Worth Center
Tue 01:51:43 PM 32.7000 -93.1944 35° Northeast 499 574 39,000  Level Fort Worth Center
Tue 01:52:43 PM 32.8139 -93.1053 33° Northeast 499 574 39,000  Level Fort Worth Center
Tue 01:53:43 PM 32.9275 -93.0106 35° Northeast 499 574 39,000  Level Fort Worth Center
Tue 01:55:34 PM 33.1400 -92.8431 33° Northeast 530 610 39,000  Level Memphis Center
Tue 01:56:34 PM 33.2483 -92.7469 37° Northeast 504 580 39,000  Level Memphis Center
Tue 01:57:34 PM 33.3425 -92.6178 49° Northeast 498 573 39,000  Level Memphis Center
Tue 01:58:34 PM 33.4306 -92.4856 51° Northeast 498 573 39,000  Level Memphis Center
Tue 01:59:34 PM 33.5161 -92.3531 52° Northeast 498 573 39,000  Level Memphis Center
Tue 02:00:34 PM 33.5975 -92.2228 53° Northeast 498 573 39,000  Level Memphis Center
Tue 02:01:34 PM 33.6850 -92.0922 51° Northeast 498 573 39,000  Level Memphis Center
Tue 02:02:34 PM 33.7700 -91.9614 52° Northeast 498 573 39,000  Level Memphis Center
Tue 02:03:34 PM 33.8553 -91.8306 52° Northeast 498 573 39,000  Level Memphis Center
Tue 02:04:34 PM 33.9294 -91.7242 50° Northeast 498 573 39,000  Level Memphis Center
Tue 02:05:34 PM 34.0144 -91.5800 55° Northeast 498 573 39,000  Level Memphis Center
Tue 02:06:34 PM 34.1119 -91.4283 52° Northeast 507 583 39,000  Level Memphis Center
Tue 02:07:34 PM 34.1964 -91.2964 52° Northeast 507 583 39,000  Level Memphis Center
Tue 02:08:34 PM 34.2786 -91.1639 53° Northeast 501 577 39,000  Level Memphis Center
Tue 02:09:34 PM 34.3544 -91.0464 52° Northeast 501 577 39,000  Level Memphis Center
Tue 02:10:34 PM 34.4408 -90.9136 52° Northeast 496 571 39,000  Level Memphis Center
Tue 02:11:34 PM 34.5247 -90.7781 53° Northeast 496 571 39,000  Level Memphis Center
Tue 02:12:34 PM 34.6086 -90.6422 53° Northeast 496 571 39,000  Level Memphis Center
Tue 02:13:34 PM 34.6900 -90.5061 54° Northeast 496 571 39,000  Level Memphis Center
Tue 02:14:34 PM 34.7758 -90.3544 55° Northeast 496 571 39,000  Level Memphis Center
Tue 02:15:34 PM 34.8739 -90.2356 45° Northeast 496 571 39,000  Level Memphis Center
Tue 02:16:34 PM 34.9717 -90.1214 44° Northeast 484 557 39,000  Level Memphis Center
Tue 02:17:34 PM 35.0694 -90.0069 44° Northeast 484 557 39,000  Level Memphis Center
Tue 02:18:34 PM 35.1442 -89.8669 57° Northeast 485 558 39,000  Level Memphis Center
Tue 02:19:34 PM 35.1933 -89.7092 69° East 485 558 39,000  Level Memphis Center
Tue 02:20:34 PM 35.2447 -89.5536 68° East 485 558 39,000  Level Memphis Center
Tue 02:21:34 PM 35.2956 -89.3956 68° East 485 558 39,000  Level Memphis Center
Tue 02:22:34 PM 35.3464 -89.2369 69° East 490 564 39,000  Level Memphis Center
Tue 02:23:34 PM 35.3969 -89.0758 69° East 490 564 39,000  Level Memphis Center
Tue 02:24:34 PM 35.4433 -88.9325 68° East 497 572 39,000  Level Memphis Center
Tue 02:25:34 PM 35.4958 -88.7708 68° East 497 572 39,000  Level Memphis Center
Tue 02:26:34 PM 35.5456 -88.6117 69° East 497 572 39,000  Level Memphis Center
Tue 02:27:34 PM 35.5975 -88.4522 68° East 497 572 39,000  Level Memphis Center
Tue 02:28:34 PM 35.6492 -88.2953 68° East 497 572 39,000  Level Memphis Center
Tue 02:29:34 PM 35.6989 -88.1433 68° East 489 563 39,000  Level Memphis Center
Tue 02:30:34 PM 35.7497 -87.9706 70° East 482 555 39,000  Level Memphis Center
Tue 02:31:34 PM 35.7986 -87.8078 70° East 488 562 39,000  Level Memphis Center
Tue 02:32:34 PM 35.8475 -87.6500 69° East 493 567 39,000  Level Memphis Center
Tue 02:33:34 PM 35.8961 -87.4922 69° East 493 567 39,000  Level Memphis Center
Tue 02:34:34 PM 35.9444 -87.3314 70° East 493 567 39,000  Level Memphis Center
Tue 02:35:34 PM 35.9903 -87.1708 71° East 493 567 39,000  Level Memphis Center
Tue 02:36:34 PM 36.0361 -87.0097 71° East 488 562 39,000  Level Memphis Center
Tue 02:37:34 PM 36.0839 -86.8461 70° East 493 567 39,000  Level Memphis Center
Tue 02:38:34 PM 36.1353 -86.6819 69° East 493 567 39,000  Level Memphis Center
Tue 02:39:34 PM 36.1886 -86.5175 68° East 503 579 39,000  Level Memphis Center
Tue 02:40:34 PM 36.2400 -86.3581 68° East 503 579 39,000  Level Memphis Center
Tue 02:41:34 PM 36.2950 -86.1958 67° East 498 573 39,000  Level Memphis Center
Tue 02:42:34 PM 36.3458 -86.0336 69° East 506 582 39,000  Level Memphis Center
Tue 02:44:31 PM 36.4494 -85.7122 68° East 512 589 39,000  Level Indianapolis Center
Tue 02:45:33 PM 36.5011 -85.5483 69° East 509 586 39,000  Level Indianapolis Center
Tue 02:46:34 PM 36.5514 -85.3842 69° East 507 583 39,000  Level Indianapolis Center
Tue 02:47:36 PM 36.6036 -85.2192 68° East 509 586 39,000  Level Indianapolis Center
Tue 02:48:38 PM 36.6539 -85.0531 69° East 509 586 39,000  Level Indianapolis Center
Tue 02:49:40 PM 36.7042 -84.8867 69° East 509 586 39,000  Level Indianapolis Center
Tue 02:50:42 PM 36.7497 -84.7164 71° East 512 589 39,000 -242 Level Indianapolis Center
Tue 02:51:44 PM 36.7808 -84.5397 78° East 517 595 38,500 -732 Descending Indianapolis Center
Tue 02:52:45 PM 36.8339 -84.3753 68° East 501 577 37,500 -732 Descending Indianapolis Center
Tue 02:53:47 PM 36.8925 -84.1856 69° East 499 574 37,000 -242 Descending Indianapolis Center
Tue 02:54:49 PM 36.9419 -84.0231 69° East 499 574 37,000  Level Indianapolis Center
Tue 02:55:51 PM 36.9911 -83.8589 69° East 499 574 37,000  Level Indianapolis Center
Tue 02:56:53 PM 37.0414 -83.6967 69° East 496 571 37,000  Level Indianapolis Center
Tue 02:57:55 PM 37.0900 -83.5342 69° East 495 570 37,000  Level Indianapolis Center
Tue 02:58:57 PM 37.1394 -83.3703 69° East 498 573 37,000  Level Indianapolis Center
Tue 02:59:59 PM 37.1872 -83.2061 70° East 496 571 37,000  Level Indianapolis Center
Tue 03:01:00 PM 37.2439 -83.0150 70° East 494 568 37,000  Level Indianapolis Center
Tue 03:02:02 PM 37.2911 -82.8522 70° East 490 564 37,000  Level Indianapolis Center
Tue 03:03:04 PM 37.3397 -82.6906 69° East 489 563 37,000  Level Indianapolis Center
Tue 03:04:06 PM 37.3847 -82.5286 71° East 487 560 37,000  Level Indianapolis Center
Tue 03:05:08 PM 37.4128 -82.3561 78° East 498 573 37,000  Level Indianapolis Center
Tue 03:06:10 PM 37.4419 -82.1856 78° East 498 573 37,000  Level Indianapolis Center
Tue 03:07:12 PM 37.4958 -82.0325 66° East 481 554 37,000  Level Indianapolis Center
Tue 03:08:14 PM 37.5533 -81.8500 68° East 481 554 37,000  Level Indianapolis Center
Tue 03:09:15 PM 37.6042 -81.6931 68° East 481 554 37,000  Level Indianapolis Center
Tue 03:10:17 PM 37.6528 -81.5358 69° East 481 554 37,000  Level Indianapolis Center
Tue 03:11:19 PM 37.6997 -81.3844 69° East 482 555 37,000  Level Indianapolis Center
Tue 03:12:22 PM 37.7536 -81.2103 69° East 471 542 37,000  Level Washington Center
Tue 03:13:22 PM 37.7864 -81.0444 76° East 463 533 37,000  Level Washington Center
Tue 03:14:22 PM 37.7964 -80.8664 86° East 483 556 37,000  Level Washington Center
Tue 03:15:22 PM 37.8081 -80.6939 85° East 488 562 37,000  Level Washington Center
Tue 03:16:22 PM 37.8192 -80.5342 85° East 501 577 37,000  Level Washington Center
Tue 03:17:22 PM 37.8303 -80.3614 85° East 501 577 37,000  Level Washington Center
Tue 03:18:22 PM 37.8411 -80.1858 85° East 496 571 37,000 -50 Level Washington Center
Tue 03:19:22 PM 37.8517 -80.0208 85° East 489 563 36,900 -1,000 Descending Washington Center
Tue 03:20:22 PM 37.8619 -79.8531 86° East 478 550 35,000 -950 Descending Washington Center
Tue 03:21:22 PM 37.8747 -79.6617 85° East 484 557 35,000  Level Washington Center
Tue 03:22:22 PM 37.8847 -79.4858 86° East 490 564 35,000  Level Washington Center
Tue 03:23:22 PM 37.8925 -79.3125 87° East 495 570 35,000  Level Washington Center
Tue 03:24:22 PM 37.9039 -79.1369 85° East 495 570 35,000  Level Washington Center
Tue 03:25:22 PM 37.9214 -78.9639 83° East 495 570 35,000  Level Washington Center
Tue 03:26:22 PM 37.9403 -78.8094 81° East 495 570 35,000  Level Washington Center
Tue 03:27:22 PM 37.9614 -78.6444 81° East 489 563 35,000  Level Washington Center
Tue 03:28:22 PM 37.9800 -78.4764 82° East 483 556 35,000  Level Washington Center
Tue 03:29:22 PM 38.0008 -78.3086 81° East 478 550 35,000  Level Washington Center
Tue 03:30:22 PM 38.0150 -78.1300 84° East 483 556 35,000  Level Washington Center
Tue 03:31:22 PM 38.0222 -77.9800 86° East 473 544 35,000  Level Washington Center
Tue 03:32:22 PM 38.0339 -77.8117 85° East 473 544 35,000  Level Washington Center
Tue 03:33:22 PM 38.0431 -77.6458 86° East 473 544 35,000  Level Washington Center
Tue 03:34:22 PM 38.0519 -77.4797 86° East 473 544 35,000  Level Washington Center
Tue 03:35:22 PM 38.0631 -77.2981 86° East 473 544 35,000 -250 Level Washington Center
Tue 03:36:22 PM 38.0903 -77.1378 78° East 473 544 34,500 -750 Descending Washington Center
Tue 03:37:22 PM 38.1400 -76.9911 67° East 456 525 33,500 -1,000 Descending Washington Center
Tue 03:38:22 PM 38.1833 -76.8411 70° East 450 518 32,500 -1,000 Descending Washington Center
Tue 03:39:22 PM 38.2308 -76.6939 68° East 450 518 31,500 -750 Descending Washington Center
Tue 03:40:22 PM 38.3292 -76.6267 28° Northeast 394 453 31,000 -250 Descending Washington Center
Tue 03:41:22 PM 38.4300 -76.5617 27° Northeast 389 448 31,000  Level Washington Center
Tue 03:42:22 PM 38.5306 -76.4967 27° Northeast 394 453 31,000 -500 Level Washington Center
Tue 03:43:22 PM 38.6331 -76.4314 26° Northeast 399 459 30,000 -1,050 Descending Washington Center
Tue 03:44:22 PM 38.7356 -76.3742 24° Northeast 399 459 28,900 -1,050 Descending Washington Center
Tue 03:45:22 PM 38.8156 -76.2764 44° Northeast 392 451 27,900 -950 Descending Washington Center
Tue 03:46:22 PM 38.8286 -76.1406 83° East 377 434 27,000 -450 Descending Washington Center
Tue 03:47:22 PM 38.8211 -75.9806 93° East 384 442 27,000  Level Washington Center
Tue 03:48:22 PM 38.8650 -75.8528 66° East 405 466 27,000 -50 Level Washington Center
Tue 03:49:22 PM 38.9569 -75.7758 33° Northeast 374 430 26,900 -50 Descending Washington Center
Tue 03:50:22 PM 39.0486 -75.6933 35° Northeast 380 437 26,900 -600 Level Washington Center
Tue 03:51:22 PM 39.1406 -75.6050 37° Northeast 398 458 25,700 -1,328 Descending Washington Center
Tue 03:52:24 PM 39.2300 -75.5219 36° Northeast 398 458 24,200 -1,400 Descending Washington Center
Tue 03:53:22 PM 39.3175 -75.4414 35° Northeast 398 458 22,900 -1,169 Descending Washington Center
Tue 03:54:22 PM 39.4092 -75.3633 33° Northeast 393 452 21,900 -1,350 Descending Washington Center
Tue 03:55:22 PM 39.4964 -75.2850 35° Northeast 388 447 20,200 -950 Descending Washington Center
Tue 03:56:22 PM 39.5775 -75.2092 36° Northeast 378 435 20,000 -100 Descending Washington Center
Tue 03:57:22 PM 39.6606 -75.1306 36° Northeast 372 428 20,000 -850 Level Washington Center
Tue 03:58:22 PM 39.7497 -75.0492 35° Northeast 361 415 18,300 -1,650 Descending Washington Center
Tue 03:59:22 PM 39.8203 -74.9917 32° Northeast 350 403 16,700 -1,699 Descending Washington Center
Tue 04:01:08 PM 39.9500 -74.8500 40° Northeast 319 367 13,600 -1,554 Descending New York TRACON
Tue 04:02:08 PM 40.0167 -74.7667 44° Northeast 291 335 12,400 -1,400 Descending New York TRACON
Tue 04:03:08 PM 40.0667 -74.7000 46° Northeast 284 327 10,800 -1,200 Descending New York TRACON
Tue 04:04:08 PM 40.1167 -74.6167 52° Northeast 277 319 10,000 -400 Descending New York TRACON
Tue 04:05:08 PM 40.1667 -74.5500 46° Northeast 279 321 10,000  Level New York TRACON
Tue 04:06:08 PM 40.2167 -74.4833 46° Northeast 276 318 10,000 -350 Level New York TRACON
Tue 04:07:08 PM 40.2667 -74.4167 45° Northeast 242 278 9,300 -843 Descending New York TRACON
Tue 04:08:09 PM 40.3167 -74.3500 45° Northeast 233 268 8,300 -992 Descending New York TRACON
Tue 04:09:09 PM 40.3667 -74.2833 45° Northeast 228 262 7,300 -650 Descending New York TRACON
Tue 04:10:09 PM 40.4000 -74.2333 49° Northeast 224 258 7,000 -550 Descending New York TRACON
Tue 04:11:09 PM 40.4500 -74.1833 37° Northeast 222 255 6,200 -750 Descending New York TRACON
Tue 04:12:09 PM 40.4833 -74.1333 49° Northeast 188 216 5,500 -900 Descending New York TRACON
Tue 04:13:09 PM 40.5333 -74.0833 37° Northeast 179 206 4,400 -1,048 Descending New York TRACON
Tue 04:14:15 PM 40.5667 -74.0500 37° Northeast 173 199 3,300 -810 Descending New York TRACON
Tue 04:15:15 PM 40.6167 -74.0167 27° Northeast 153 176 2,700 -316 Descending New York TRACON
Tue 04:16:09 PM 40.6500 -73.9833 37° Northeast 149 171 2,700 -250 Level New York TRACON
Tue 04:17:15 PM 40.6833 -73.9667 21° North 149 171 2,200 -455 Descending New York TRACON

Login

Don't have an account? Register now (free) for customized features, flight alerts, and more!